createdAt,value
2017-07-24T00:00:12.873Z,989.57
2017-07-24T00:01:12.684Z,989.48
2017-07-24T00:02:13.198Z,989.62
2017-07-24T00:03:13.114Z,989.52
2017-07-24T00:04:13.142Z,989.55
2017-07-24T00:05:13.155Z,989.57
2017-07-24T00:06:13.096Z,989.54
2017-07-24T00:07:13.112Z,989.54
2017-07-24T00:08:13.148Z,989.46
2017-07-24T00:09:12.965Z,989.49
2017-07-24T00:10:12.986Z,989.55
2017-07-24T00:11:13.014Z,989.52
2017-07-24T00:12:12.734Z,989.47
2017-07-24T00:13:12.757Z,989.48
2017-07-24T00:14:12.775Z,989.50
2017-07-24T00:15:12.901Z,989.51
2017-07-24T00:16:12.823Z,989.45
2017-07-24T00:17:12.742Z,989.36
2017-07-24T00:18:13.278Z,989.43
2017-07-24T00:19:13.200Z,989.48
2017-07-24T00:20:13.319Z,989.45
2017-07-24T00:21:13.343Z,989.50
2017-07-24T00:22:13.157Z,989.39
2017-07-24T00:23:13.280Z,989.43
2017-07-24T00:24:13.196Z,989.48
2017-07-24T00:25:13.216Z,989.47
2017-07-24T00:26:13.026Z,989.35
2017-07-24T00:27:13.048Z,989.43
2017-07-24T00:28:12.761Z,989.39
2017-07-24T00:29:13.079Z,989.34
2017-07-24T00:30:12.793Z,989.38
2017-07-24T00:31:12.803Z,989.39
2017-07-24T00:32:12.832Z,989.23
2017-07-24T00:33:12.845Z,989.33
2017-07-24T00:34:13.203Z,989.32
2017-07-24T00:35:13.280Z,989.17
2017-07-24T00:36:13.192Z,989.22
2017-07-24T00:37:13.202Z,989.26
2017-07-24T00:38:13.222Z,989.29
2017-07-24T00:39:13.236Z,989.32
2017-07-24T00:40:13.540Z,989.30
2017-07-24T00:41:13.264Z,989.32
2017-07-24T00:42:13.027Z,989.31
2017-07-24T00:43:13.142Z,989.35
2017-07-24T00:44:13.054Z,989.25
2017-07-24T00:45:13.064Z,989.29
2017-07-24T00:46:12.878Z,989.22
2017-07-24T00:47:12.906Z,989.25
2017-07-24T00:48:12.865Z,989.22
2017-07-24T00:49:12.979Z,989.21
2017-07-24T00:50:12.925Z,989.25
2017-07-24T00:51:12.834Z,989.17
2017-07-24T00:52:13.268Z,989.19
2017-07-24T00:53:13.385Z,989.17
2017-07-24T00:54:13.306Z,989.09
2017-07-24T00:55:13.326Z,989.13
2017-07-24T00:56:13.265Z,989.13
2017-07-24T00:57:13.299Z,989.03
2017-07-24T00:58:13.437Z,989.10
2017-07-24T00:59:13.365Z,989.05
2017-07-24T01:02:31.907Z,989.13
2017-07-24T01:02:32.514Z,989.12
2017-07-24T01:02:33.230Z,989.09
2017-07-24T01:03:13.011Z,989.09
2017-07-24T01:05:44.940Z,989.12
2017-07-24T01:05:45.544Z,989.03
2017-07-24T01:08:31.908Z,989.00
2017-07-24T01:08:32.816Z,989.06
2017-07-24T01:08:33.524Z,989.02
2017-07-24T01:11:53.082Z,989.04
2017-07-24T01:11:53.993Z,989.11
2017-07-24T01:11:54.598Z,989.00
2017-07-24T01:14:31.869Z,989.05
2017-07-24T01:14:32.548Z,988.93
2017-07-24T01:14:33.156Z,988.98
2017-07-24T01:20:50.110Z,989.01
2017-07-24T01:21:20.367Z,988.93
2017-07-24T01:21:20.974Z,988.90
2017-07-24T01:21:21.581Z,988.94
2017-07-24T01:21:22.185Z,988.87
2017-07-24T01:21:22.928Z,988.93
2017-07-24T01:21:23.632Z,988.96
2017-07-24T01:22:13.232Z,988.86
2017-07-24T01:23:13.352Z,988.91
2017-07-24T01:26:32.238Z,988.91
2017-07-24T01:26:32.845Z,988.86
2017-07-24T01:26:33.452Z,988.84
2017-07-24T01:29:43.189Z,988.88
2017-07-24T01:29:44.100Z,988.86
2017-07-24T01:29:44.708Z,988.83
2017-07-24T01:33:03.002Z,988.79
2017-07-24T01:33:03.608Z,988.80
2017-07-24T01:33:04.213Z,988.75
2017-07-24T01:35:41.942Z,988.75
2017-07-24T01:35:42.548Z,988.75
2017-07-24T01:35:43.153Z,988.71
2017-07-24T01:38:32.317Z,988.69
2017-07-24T01:38:32.922Z,988.68
2017-07-24T01:38:33.546Z,990.74
2017-07-24T01:44:14.094Z,988.70
2017-07-24T01:44:15.104Z,988.68
2017-07-24T01:44:15.709Z,988.64
2017-07-24T01:44:16.416Z,988.66
2017-07-24T01:44:17.131Z,988.62
2017-07-24T01:44:17.740Z,988.54
2017-07-24T01:45:13.037Z,988.46
2017-07-24T01:51:16.995Z,988.54
2017-07-24T01:51:17.701Z,988.47
2017-07-24T01:51:18.308Z,988.53
2017-07-24T01:51:19.035Z,988.48
2017-07-24T01:51:19.644Z,988.41
2017-07-24T01:51:20.248Z,988.48
2017-07-24T01:52:13.046Z,988.43
2017-07-24T01:53:13.463Z,988.46
2017-07-24T01:56:32.064Z,988.44
2017-07-24T01:56:32.975Z,988.50
2017-07-24T01:56:33.679Z,988.43
2017-07-24T01:59:45.671Z,988.38
2017-07-24T01:59:46.376Z,988.41
2017-07-24T01:59:46.985Z,988.40
2017-07-24T02:00:13.035Z,988.39
2017-07-24T02:01:13.457Z,988.38
2017-07-24T02:02:13.481Z,988.38
2017-07-24T02:03:13.592Z,988.29
2017-07-24T02:04:13.507Z,988.31
2017-07-24T02:05:13.523Z,988.26
2017-07-24T02:06:13.444Z,988.22
2017-07-24T02:07:13.255Z,988.22
2017-07-24T02:08:13.292Z,988.28
2017-07-24T02:09:13.307Z,988.22
2017-07-24T02:10:13.125Z,988.28
2017-07-24T02:11:13.048Z,988.17
2017-07-24T02:12:13.153Z,988.24
2017-07-24T02:13:13.070Z,988.17
2017-07-24T02:14:13.386Z,988.20
2017-07-24T02:15:13.539Z,988.18
2017-07-24T02:16:13.473Z,988.15
2017-07-24T02:17:13.491Z,988.18
2017-07-24T02:18:13.571Z,988.26
2017-07-24T02:19:13.585Z,988.22
2017-07-24T02:20:13.501Z,988.13
2017-07-24T02:21:13.515Z,988.13
2017-07-24T02:22:13.532Z,988.15
2017-07-24T02:23:13.339Z,988.11
2017-07-24T02:24:13.377Z,988.08
2017-07-24T02:25:13.387Z,988.08
2017-07-24T02:26:13.407Z,988.11
2017-07-24T02:27:13.123Z,988.01
2017-07-24T02:28:13.140Z,988.02
2017-07-24T02:29:13.164Z,987.98
2017-07-24T02:30:13.287Z,988.04
2017-07-24T02:31:13.139Z,987.99
2017-07-24T02:32:13.557Z,987.91
2017-07-24T02:33:13.564Z,987.93
2017-07-24T02:34:13.582Z,987.94
2017-07-24T02:35:13.607Z,987.88
2017-07-24T02:36:13.629Z,987.91
2017-07-24T02:37:13.762Z,987.90
2017-07-24T02:38:13.597Z,987.87
2017-07-24T02:39:13.618Z,987.87
2017-07-24T02:40:13.738Z,987.86
2017-07-24T02:41:13.358Z,987.85
2017-07-24T02:42:13.467Z,987.85
2017-07-24T02:43:13.181Z,987.82
2017-07-24T02:44:13.205Z,987.82
2017-07-24T02:45:13.228Z,987.83
2017-07-24T02:46:13.251Z,987.82
2017-07-24T02:47:13.281Z,987.82
2017-07-24T02:48:13.211Z,987.83
2017-07-24T02:49:13.634Z,987.87
2017-07-24T02:50:13.770Z,987.83
2017-07-24T02:51:13.628Z,987.87
2017-07-24T02:52:13.673Z,987.77
2017-07-24T02:53:13.762Z,987.78
2017-07-24T02:54:13.674Z,987.78
2017-07-24T02:55:13.588Z,987.71
2017-07-24T02:56:13.414Z,987.62
2017-07-24T02:57:13.441Z,987.75
2017-07-24T02:58:13.457Z,987.70
2017-07-24T02:59:13.485Z,987.69
2017-07-24T03:00:13.513Z,987.68
2017-07-24T03:01:13.242Z,987.67
2017-07-24T03:02:13.261Z,987.81
2017-07-24T03:03:13.292Z,987.71
2017-07-24T03:04:13.301Z,987.65
2017-07-24T03:05:13.631Z,987.68
2017-07-24T03:06:13.661Z,987.59
2017-07-24T03:09:14.946Z,987.62
2017-07-24T03:09:15.550Z,987.63
2017-07-24T03:09:16.359Z,987.64
2017-07-24T03:10:13.366Z,987.62
2017-07-24T03:11:13.680Z,987.51
2017-07-24T03:12:13.704Z,987.52
2017-07-24T03:13:13.744Z,987.52
2017-07-24T03:14:13.574Z,987.44
2017-07-24T03:15:13.669Z,987.48
2017-07-24T03:16:13.491Z,987.50
2017-07-24T03:17:13.310Z,987.45
2017-07-24T03:18:13.339Z,987.44
2017-07-24T03:19:13.262Z,987.45
2017-07-24T03:20:13.292Z,987.39
2017-07-24T03:21:13.724Z,987.37
2017-07-24T03:22:13.753Z,987.38
2017-07-24T03:23:13.678Z,987.38
2017-07-24T03:24:13.786Z,987.34
2017-07-24T03:25:13.758Z,987.35
2017-07-24T03:26:13.707Z,987.34
2017-07-24T03:27:13.728Z,987.35
2017-07-24T03:28:13.744Z,987.24
2017-07-24T03:29:13.862Z,987.35
2017-07-24T03:30:13.780Z,987.30
2017-07-24T03:31:13.498Z,987.34
2017-07-24T03:32:13.622Z,987.37
2017-07-24T03:33:13.539Z,987.31
2017-07-24T03:34:13.660Z,987.28
2017-07-24T03:35:13.383Z,987.31
2017-07-24T03:36:13.415Z,987.31
2017-07-24T03:37:13.374Z,987.27
2017-07-24T03:38:13.839Z,987.22
2017-07-24T03:39:13.815Z,987.24
2017-07-24T03:40:13.828Z,987.21
2017-07-24T03:41:13.783Z,987.24
2017-07-24T03:42:13.898Z,987.23
2017-07-24T03:43:13.818Z,987.24
2017-07-24T03:44:13.957Z,987.29
2017-07-24T03:45:13.767Z,987.24
2017-07-24T03:46:13.555Z,987.21
2017-07-24T03:47:13.677Z,987.22
2017-07-24T03:48:13.610Z,987.21
2017-07-24T03:49:13.628Z,987.15
2017-07-24T03:50:13.392Z,987.17
2017-07-24T03:51:13.410Z,987.23
2017-07-24T03:52:13.430Z,987.21
2017-07-24T03:53:13.494Z,987.10
2017-07-24T03:54:13.556Z,987.16
2017-07-24T03:55:13.478Z,987.08
2017-07-24T03:56:13.905Z,987.07
2017-07-24T03:57:13.829Z,987.06
2017-07-24T03:58:13.953Z,987.11
2017-07-24T03:59:13.976Z,987.06
2017-07-24T04:00:15.899Z,987.08
2017-07-24T04:01:13.424Z,987.05
2017-07-24T04:02:13.955Z,987.10
2017-07-24T04:03:13.871Z,987.09
2017-07-24T04:04:13.680Z,986.97
2017-07-24T04:05:13.627Z,987.00
2017-07-24T04:06:13.724Z,986.92
2017-07-24T04:07:13.442Z,986.97
2017-07-24T04:08:13.466Z,986.88
2017-07-24T04:09:13.796Z,986.97
2017-07-24T04:10:13.523Z,986.92
2017-07-24T04:11:13.557Z,986.86
2017-07-24T04:12:13.479Z,986.88
2017-07-24T04:13:13.907Z,986.84
2017-07-24T04:14:13.928Z,986.84
2017-07-24T04:15:13.972Z,986.76
2017-07-24T04:16:13.903Z,986.74
2017-07-24T04:17:13.918Z,986.83
2017-07-24T04:18:13.925Z,986.74
2017-07-24T04:19:13.946Z,986.76
2017-07-24T04:20:13.667Z,986.79
2017-07-24T04:21:13.694Z,986.73
2017-07-24T04:22:13.727Z,986.76
2017-07-24T04:23:13.863Z,986.80
2017-07-24T04:24:13.780Z,986.73
2017-07-24T04:25:13.802Z,986.79
2017-07-24T04:26:13.923Z,986.73
2017-07-24T04:27:13.633Z,986.72
2017-07-24T04:28:13.450Z,986.76
2017-07-24T04:29:14.021Z,986.74
2017-07-24T04:30:13.940Z,986.78
2017-07-24T04:31:13.948Z,986.70
2017-07-24T04:32:14.062Z,986.74
2017-07-24T04:33:13.873Z,986.78
2017-07-24T04:34:14.050Z,986.68
2017-07-24T04:35:14.168Z,986.74
2017-07-24T04:36:14.087Z,986.68
2017-07-24T04:37:14.098Z,986.67
2017-07-24T04:38:13.721Z,986.63
2017-07-24T04:39:13.849Z,986.55
2017-07-24T04:40:13.762Z,986.59
2017-07-24T04:41:13.576Z,986.66
2017-07-24T04:42:13.590Z,986.54
2017-07-24T04:43:13.506Z,986.56
2017-07-24T04:44:13.856Z,986.61
2017-07-24T04:45:13.945Z,986.63
2017-07-24T04:46:13.998Z,986.64
2017-07-24T04:47:13.989Z,986.63
2017-07-24T04:48:14.047Z,986.60
2017-07-24T04:49:13.989Z,986.54
2017-07-24T04:50:13.973Z,986.58
2017-07-24T04:51:14.024Z,986.51
2017-07-24T04:52:14.039Z,986.57
2017-07-24T04:53:13.984Z,986.59
2017-07-24T04:54:13.765Z,986.60
2017-07-24T04:55:13.907Z,986.62
2017-07-24T04:56:13.827Z,986.56
2017-07-24T04:57:13.839Z,986.60
2017-07-24T04:58:13.637Z,986.56
2017-07-24T04:59:13.964Z,986.60
2017-07-24T05:00:13.583Z,986.52
2017-07-24T05:01:13.576Z,986.48
2017-07-24T05:02:14.097Z,986.47
2017-07-24T05:03:13.962Z,986.48
2017-07-24T05:04:14.039Z,986.44
2017-07-24T05:05:14.069Z,986.41
2017-07-24T05:06:14.213Z,986.45
2017-07-24T05:07:14.177Z,986.42
2017-07-24T05:08:14.039Z,986.40
2017-07-24T05:09:14.076Z,986.32
2017-07-24T05:10:14.165Z,986.36
2017-07-24T05:11:13.824Z,986.36
2017-07-24T05:12:13.873Z,986.31
2017-07-24T05:13:14.000Z,986.34
2017-07-24T05:14:13.931Z,986.26
2017-07-24T05:15:13.608Z,986.23
2017-07-24T05:16:13.700Z,986.16
2017-07-24T05:17:13.780Z,986.14
2017-07-24T05:18:13.605Z,986.15
2017-07-24T05:19:14.030Z,986.06
2017-07-24T05:20:14.106Z,986.11
2017-07-24T05:21:14.178Z,986.06
2017-07-24T05:22:14.043Z,986.06
2017-07-24T05:23:14.208Z,986.11
2017-07-24T05:24:14.335Z,986.10
2017-07-24T05:25:14.037Z,986.03
2017-07-24T05:26:14.116Z,986.03
2017-07-24T05:27:13.848Z,986.12
2017-07-24T05:28:13.963Z,986.02
2017-07-24T05:29:13.924Z,986.05
2017-07-24T05:30:14.071Z,986.10
2017-07-24T05:31:13.713Z,986.02
2017-07-24T05:32:13.710Z,985.96
2017-07-24T05:33:13.677Z,985.91
2017-07-24T05:34:13.673Z,985.93
2017-07-24T05:35:14.127Z,985.90
2017-07-24T05:36:14.159Z,985.97
2017-07-24T05:37:14.056Z,985.93
2017-07-24T05:38:14.071Z,985.91
2017-07-24T05:39:14.174Z,985.89
2017-07-24T05:40:14.210Z,985.95
2017-07-24T05:41:14.146Z,985.83
2017-07-24T05:42:14.102Z,985.85
2017-07-24T05:43:14.248Z,985.92
2017-07-24T05:44:14.159Z,985.85
2017-07-24T05:45:13.960Z,985.78
2017-07-24T05:46:13.924Z,985.85
2017-07-24T05:47:13.689Z,985.88
2017-07-24T05:48:13.761Z,985.83
2017-07-24T05:49:13.771Z,985.75
2017-07-24T05:50:13.698Z,985.69
2017-07-24T05:51:14.068Z,985.71
2017-07-24T05:52:14.055Z,985.65
2017-07-24T05:53:14.293Z,985.71
2017-07-24T05:54:14.149Z,985.64
2017-07-24T05:55:14.306Z,985.65
2017-07-24T05:56:14.329Z,985.62
2017-07-24T05:57:14.263Z,985.60
2017-07-24T05:58:14.416Z,985.65
2017-07-24T05:59:14.464Z,985.61
2017-07-24T06:00:14.327Z,985.58
2017-07-24T06:01:13.978Z,985.56
2017-07-24T06:02:13.961Z,985.54
2017-07-24T06:03:13.997Z,985.57
2017-07-24T06:04:14.175Z,985.59
2017-07-24T06:05:13.825Z,985.61
2017-07-24T06:06:13.860Z,985.60
2017-07-24T06:07:13.797Z,985.56
2017-07-24T06:08:13.817Z,985.54
2017-07-24T06:09:14.164Z,985.47
2017-07-24T06:10:14.214Z,985.49
2017-07-24T06:11:14.333Z,985.46
2017-07-24T06:12:14.188Z,985.50
2017-07-24T06:13:14.243Z,985.48
2017-07-24T06:14:14.386Z,985.48
2017-07-24T06:15:14.196Z,985.45
2017-07-24T06:16:14.208Z,985.43
2017-07-24T06:17:14.374Z,985.39
2017-07-24T06:18:14.116Z,985.47
2017-07-24T06:19:14.044Z,985.40
2017-07-24T06:20:14.115Z,985.33
2017-07-24T06:21:13.841Z,985.40
2017-07-24T06:22:13.858Z,985.35
2017-07-24T06:23:13.886Z,985.41
2017-07-24T06:24:13.837Z,985.33
2017-07-24T06:25:14.294Z,985.31
2017-07-24T06:26:14.332Z,985.25
2017-07-24T06:27:14.257Z,985.30
2017-07-24T06:28:14.300Z,985.30
2017-07-24T06:29:14.334Z,985.28
2017-07-24T06:30:14.256Z,985.22
2017-07-24T06:31:14.281Z,985.26
2017-07-24T06:32:14.327Z,985.34
2017-07-24T06:33:14.263Z,985.27
2017-07-24T06:34:14.354Z,985.25
2017-07-24T06:35:14.110Z,985.28
2017-07-24T06:36:14.143Z,985.19
2017-07-24T06:37:13.819Z,985.29
2017-07-24T06:38:13.852Z,985.22
2017-07-24T06:39:13.897Z,985.27
2017-07-24T06:40:13.849Z,985.22
2017-07-24T06:41:14.422Z,985.15
2017-07-24T06:42:14.375Z,985.21
2017-07-24T06:43:14.411Z,985.20
2017-07-24T06:44:14.437Z,985.14
2017-07-24T06:45:14.379Z,985.08
2017-07-24T06:46:14.287Z,985.10
2017-07-24T06:47:14.285Z,985.07
2017-07-24T06:48:14.308Z,985.10
2017-07-24T06:49:14.442Z,985.13
2017-07-24T06:50:14.296Z,985.04
2017-07-24T06:51:14.142Z,985.03
2017-07-24T06:52:14.185Z,985.09
2017-07-24T06:53:14.117Z,985.01
2017-07-24T06:54:14.260Z,985.04
2017-07-24T06:55:14.232Z,984.97
2017-07-24T06:56:13.927Z,985.08
2017-07-24T06:57:13.927Z,985.00
2017-07-24T06:58:14.214Z,985.01
2017-07-24T06:59:14.354Z,985.03
2017-07-24T07:00:14.352Z,985.04
2017-07-24T07:01:14.326Z,985.07
2017-07-24T07:02:14.466Z,984.96
2017-07-24T07:03:14.513Z,985.01
2017-07-24T07:04:14.434Z,985.07
2017-07-24T07:05:14.358Z,985.05
2017-07-24T07:06:14.393Z,985.04
2017-07-24T07:07:14.418Z,985.06
2017-07-24T07:08:14.554Z,985.07
2017-07-24T07:09:14.199Z,985.02
2017-07-24T07:10:14.267Z,985.01
2017-07-24T07:11:13.980Z,984.98
2017-07-24T07:12:14.061Z,985.00
2017-07-24T07:13:13.953Z,985.05
2017-07-24T07:14:14.032Z,984.88
2017-07-24T07:15:14.015Z,985.01
2017-07-24T07:16:14.456Z,984.99
2017-07-24T07:17:14.549Z,984.91
2017-07-24T07:18:14.464Z,984.91
2017-07-24T07:19:14.516Z,984.99
2017-07-24T07:20:14.603Z,984.94
2017-07-24T07:21:14.529Z,984.98
2017-07-24T07:22:14.460Z,984.88
2017-07-24T07:23:14.662Z,984.97
2017-07-24T07:24:14.644Z,984.93
2017-07-24T07:25:14.333Z,984.89
2017-07-24T07:26:14.214Z,984.86
2017-07-24T07:27:14.291Z,984.86
2017-07-24T07:28:14.384Z,984.89
2017-07-24T07:29:14.077Z,984.86
2017-07-24T07:30:14.572Z,984.85
2017-07-24T07:31:14.046Z,984.82
2017-07-24T07:32:14.076Z,984.79
2017-07-24T07:33:14.509Z,984.81
2017-07-24T07:34:14.448Z,984.80
2017-07-24T07:35:14.482Z,984.79
2017-07-24T07:36:14.526Z,984.74
2017-07-24T07:37:14.593Z,984.68
2017-07-24T07:38:14.470Z,984.68
2017-07-24T07:39:14.505Z,984.65
2017-07-24T07:40:14.472Z,984.64
2017-07-24T07:41:14.335Z,984.65
2017-07-24T07:42:14.317Z,984.64
2017-07-24T07:43:14.897Z,984.62
2017-07-24T07:44:14.319Z,984.61
2017-07-24T07:45:14.402Z,984.57
2017-07-24T07:46:14.119Z,984.58
2017-07-24T07:47:14.084Z,984.54
2017-07-24T07:48:14.077Z,984.54
2017-07-24T07:49:14.356Z,984.51
2017-07-24T07:50:14.556Z,984.53
2017-07-24T07:51:14.536Z,984.43
2017-07-24T07:52:14.620Z,984.49
2017-07-24T07:53:14.586Z,984.43
2017-07-24T07:54:14.705Z,984.46
2017-07-24T07:55:14.646Z,984.45
2017-07-24T07:56:14.749Z,984.43
2017-07-24T07:57:14.819Z,984.43
2017-07-24T07:58:14.293Z,984.32
2017-07-24T07:59:14.447Z,984.38
2017-07-24T08:00:14.377Z,984.39
2017-07-24T08:01:14.467Z,984.37
2017-07-24T08:02:14.110Z,984.37
2017-07-24T08:03:14.222Z,984.32
2017-07-24T08:04:14.278Z,984.29
2017-07-24T08:05:14.202Z,984.33
2017-07-24T08:06:14.117Z,984.29
2017-07-24T08:07:14.550Z,984.33
2017-07-24T08:08:14.689Z,984.29
2017-07-24T08:09:14.643Z,984.27
2017-07-24T08:10:14.712Z,984.23
2017-07-24T08:11:14.736Z,984.27
2017-07-24T08:12:14.658Z,984.27
2017-07-24T08:13:14.615Z,984.24
2017-07-24T08:14:14.560Z,984.29
2017-07-24T08:15:14.574Z,984.21
2017-07-24T08:16:14.390Z,984.24
2017-07-24T08:17:14.374Z,984.21
2017-07-24T08:18:14.156Z,984.20
2017-07-24T08:19:14.187Z,984.19
2017-07-24T08:20:14.141Z,984.17
2017-07-24T08:21:14.192Z,984.17
2017-07-24T08:22:14.259Z,984.24
2017-07-24T08:23:14.207Z,984.18
2017-07-24T08:24:14.758Z,984.26
2017-07-24T08:25:14.840Z,984.20
2017-07-24T08:26:14.624Z,984.21
2017-07-24T08:27:14.707Z,984.24
2017-07-24T08:28:14.761Z,984.15
2017-07-24T08:29:14.714Z,984.19
2017-07-24T08:30:14.600Z,984.14
2017-07-24T08:31:14.599Z,984.17
2017-07-24T08:32:14.525Z,984.11
2017-07-24T08:33:14.412Z,984.17
2017-07-24T08:34:14.419Z,984.10
2017-07-24T08:35:14.481Z,984.09
2017-07-24T08:36:14.555Z,984.04
2017-07-24T08:37:14.257Z,984.06
2017-07-24T08:38:14.206Z,984.09
2017-07-24T08:39:14.239Z,984.13
2017-07-24T08:40:14.649Z,984.06
2017-07-24T08:41:14.718Z,984.09
2017-07-24T08:42:14.646Z,984.09
2017-07-24T08:43:14.735Z,984.06
2017-07-24T08:44:14.637Z,984.05
2017-07-24T08:45:14.707Z,984.01
2017-07-24T08:46:14.809Z,984.08
2017-07-24T08:47:14.662Z,983.99
2017-07-24T08:48:14.744Z,984.00
2017-07-24T08:49:14.485Z,984.07
2017-07-24T08:50:14.517Z,983.96
2017-07-24T08:51:14.558Z,983.98
2017-07-24T08:52:14.497Z,983.99
2017-07-24T08:53:14.566Z,983.98
2017-07-24T08:54:14.325Z,983.92
2017-07-24T08:55:14.301Z,983.92
2017-07-24T08:56:14.439Z,983.90
2017-07-24T08:57:14.315Z,983.88
2017-07-24T08:58:14.771Z,983.86
2017-07-24T08:59:14.751Z,983.87
2017-07-24T09:00:14.748Z,983.91
2017-07-24T09:01:14.901Z,983.85
2017-07-24T09:02:14.804Z,983.86
2017-07-24T09:03:18.060Z,983.79
2017-07-24T09:04:14.266Z,983.83
2017-07-24T09:05:14.759Z,983.80
2017-07-24T09:06:14.795Z,983.84
2017-07-24T09:07:14.501Z,983.82
2017-07-24T09:08:14.567Z,983.72
2017-07-24T09:09:14.607Z,983.73
2017-07-24T09:10:14.328Z,983.65
2017-07-24T09:11:14.665Z,983.66
2017-07-24T09:12:14.315Z,983.67
2017-07-24T09:13:14.469Z,983.60
2017-07-24T09:14:14.422Z,983.65
2017-07-24T09:15:14.879Z,983.64
2017-07-24T09:16:14.937Z,983.59
2017-07-24T09:17:15.101Z,983.60
2017-07-24T09:18:15.166Z,983.56
2017-07-24T09:19:14.908Z,983.54
2017-07-24T09:20:15.157Z,983.57
2017-07-24T09:21:14.796Z,983.54
2017-07-24T09:22:14.783Z,983.46
2017-07-24T09:23:14.841Z,983.52
2017-07-24T09:24:14.619Z,983.51
2017-07-24T09:25:14.812Z,983.45
2017-07-24T09:26:14.806Z,983.52
2017-07-24T09:27:14.673Z,983.42
2017-07-24T09:28:14.424Z,983.42
2017-07-24T09:29:14.904Z,983.42
2017-07-24T09:30:14.425Z,983.39
2017-07-24T09:31:14.533Z,983.39
2017-07-24T09:32:14.433Z,983.36
2017-07-24T09:33:14.927Z,983.36
2017-07-24T09:34:14.894Z,983.43
2017-07-24T09:35:15.009Z,983.32
2017-07-24T09:36:14.961Z,983.32
2017-07-24T09:37:14.913Z,983.32
2017-07-24T09:38:14.780Z,983.40
2017-07-24T09:39:14.834Z,983.32
2017-07-24T09:40:19.418Z,983.26
2017-07-24T09:41:14.541Z,983.27
2017-07-24T09:42:14.867Z,983.24
2017-07-24T09:43:14.792Z,983.25
2017-07-24T09:44:14.436Z,983.23
2017-07-24T09:45:14.898Z,983.21
2017-07-24T09:46:14.554Z,983.16
2017-07-24T09:47:14.518Z,983.19
2017-07-24T09:48:14.464Z,983.16
2017-07-24T09:49:14.906Z,983.04
2017-07-24T09:50:14.879Z,983.08
2017-07-24T09:51:15.045Z,983.12
2017-07-24T09:52:15.058Z,983.06
2017-07-24T09:53:14.843Z,983.05
2017-07-24T09:54:15.018Z,983.01
2017-07-24T09:55:15.031Z,982.98
2017-07-24T09:56:15.253Z,983.00
2017-07-24T09:57:14.977Z,982.98
2017-07-24T09:58:15.384Z,982.92
2017-07-24T09:59:14.700Z,982.95
2017-07-24T10:00:15.049Z,983.00
2017-07-24T10:01:14.457Z,982.92
2017-07-24T10:02:14.568Z,982.86
2017-07-24T10:03:14.486Z,982.85
2017-07-24T10:04:14.521Z,982.94
2017-07-24T10:05:14.563Z,982.82
2017-07-24T10:06:15.028Z,982.84
2017-07-24T10:07:14.987Z,982.90
2017-07-24T10:08:15.036Z,982.75
2017-07-24T10:09:17.184Z,982.77
2017-07-24T10:10:14.535Z,982.73
2017-07-24T10:11:15.269Z,982.80
2017-07-24T10:12:15.062Z,982.77
2017-07-24T10:13:15.247Z,982.68
2017-07-24T10:14:15.104Z,982.62
2017-07-24T10:15:14.749Z,982.59
2017-07-24T10:16:14.742Z,982.65
2017-07-24T10:17:14.753Z,982.56
2017-07-24T10:18:14.546Z,982.56
2017-07-24T10:19:14.563Z,982.45
2017-07-24T10:20:14.585Z,982.50
2017-07-24T10:21:14.546Z,982.49
2017-07-24T10:22:14.998Z,982.48
2017-07-24T10:23:14.932Z,982.48
2017-07-24T10:24:15.068Z,982.52
2017-07-24T10:25:15.049Z,982.40
2017-07-24T10:26:15.159Z,982.53
2017-07-24T10:27:14.955Z,982.48
2017-07-24T10:28:14.964Z,982.51
2017-07-24T10:29:15.169Z,982.43
2017-07-24T10:30:15.009Z,982.40
2017-07-24T10:31:15.098Z,982.44
2017-07-24T10:32:14.806Z,982.38
2017-07-24T10:33:14.881Z,982.47
2017-07-24T10:34:14.821Z,982.31
2017-07-24T10:35:14.558Z,982.37
2017-07-24T10:36:14.593Z,982.25
2017-07-24T10:37:14.636Z,982.27
2017-07-24T10:38:14.661Z,982.36
2017-07-24T10:39:14.685Z,982.29
2017-07-24T10:40:14.630Z,982.31
2017-07-24T10:41:15.298Z,982.18
2017-07-24T10:42:15.029Z,982.15
2017-07-24T10:43:15.079Z,982.19
2017-07-24T10:44:15.034Z,982.18
2017-07-24T10:45:15.004Z,982.22
2017-07-24T10:46:15.190Z,982.21
2017-07-24T10:47:15.041Z,982.28
2017-07-24T10:48:15.215Z,982.21
2017-07-24T10:49:14.977Z,982.28
2017-07-24T10:50:14.830Z,982.35
2017-07-24T10:51:14.885Z,982.31
2017-07-24T10:52:14.635Z,982.26
2017-07-24T10:53:14.691Z,982.25
2017-07-24T10:54:14.637Z,982.24
2017-07-24T10:55:14.681Z,982.35
2017-07-24T10:56:14.614Z,982.28
2017-07-24T10:57:15.046Z,982.34
2017-07-24T10:58:15.123Z,982.29
2017-07-24T10:59:15.185Z,982.41
2017-07-24T11:00:15.085Z,982.37
2017-07-24T11:01:15.030Z,982.27
2017-07-24T11:02:15.058Z,982.32
2017-07-24T11:03:15.091Z,982.29
2017-07-24T11:04:15.111Z,982.38
2017-07-24T11:05:15.160Z,982.47
2017-07-24T11:06:14.907Z,982.43
2017-07-24T11:07:14.973Z,982.48
2017-07-24T11:08:15.042Z,982.50
2017-07-24T11:09:14.688Z,982.50
2017-07-24T11:10:14.755Z,982.50
2017-07-24T11:11:14.818Z,982.49
2017-07-24T11:12:14.690Z,982.54
2017-07-24T11:13:15.057Z,982.39
2017-07-24T11:14:15.180Z,982.39
2017-07-24T11:15:15.102Z,982.38
2017-07-24T11:16:15.297Z,982.48
2017-07-24T11:17:15.219Z,982.52
2017-07-24T11:18:15.209Z,982.51
2017-07-24T11:19:15.151Z,982.51
2017-07-24T11:20:15.104Z,982.57
2017-07-24T11:21:15.240Z,982.69
2017-07-24T11:22:14.937Z,982.69
2017-07-24T11:23:14.943Z,982.64
2017-07-24T11:24:14.885Z,982.53
2017-07-24T11:25:15.111Z,982.62
2017-07-24T11:26:14.747Z,982.56
2017-07-24T11:27:14.832Z,982.50
2017-07-24T11:28:14.700Z,982.50
2017-07-24T11:29:14.895Z,982.52
2017-07-24T11:30:14.840Z,982.47
2017-07-24T11:31:14.756Z,982.38
2017-07-24T11:32:15.175Z,982.47
2017-07-24T11:33:15.295Z,982.40
2017-07-24T11:34:15.205Z,982.44
2017-07-24T11:35:15.124Z,982.45
2017-07-24T11:36:15.151Z,982.40
2017-07-24T11:37:15.233Z,982.45
2017-07-24T11:38:15.044Z,982.37
2017-07-24T11:39:15.225Z,982.43
2017-07-24T11:40:15.005Z,982.38
2017-07-24T11:41:15.210Z,982.39
2017-07-24T11:42:14.772Z,982.34
2017-07-24T11:43:15.137Z,982.38
2017-07-24T11:44:14.796Z,982.35
2017-07-24T11:45:14.857Z,982.27
2017-07-24T11:46:14.808Z,982.25
2017-07-24T11:47:15.261Z,982.34
2017-07-24T11:48:15.197Z,982.30
2017-07-24T11:49:15.238Z,982.35
2017-07-24T11:50:15.191Z,982.31
2017-07-24T11:51:15.443Z,982.29
2017-07-24T11:52:15.222Z,982.35
2017-07-24T11:53:15.265Z,982.36
2017-07-24T11:54:15.272Z,982.29
2017-07-24T11:55:15.225Z,982.31
2017-07-24T11:56:15.048Z,982.26
2017-07-24T11:57:14.966Z,982.29
2017-07-24T11:58:15.088Z,982.25
2017-07-24T11:59:15.153Z,982.36
2017-07-24T12:00:14.797Z,982.30
2017-07-24T12:01:14.862Z,982.29
2017-07-24T12:02:14.865Z,982.28
2017-07-24T12:03:14.938Z,982.27
2017-07-24T12:04:14.800Z,982.33
2017-07-24T12:05:15.231Z,982.32
2017-07-24T12:06:15.344Z,982.32
2017-07-24T12:07:15.269Z,982.32
2017-07-24T12:08:15.237Z,982.35
2017-07-24T12:09:15.323Z,982.32
2017-07-24T12:10:15.494Z,982.42
2017-07-24T12:11:15.279Z,982.41
2017-07-24T12:12:15.648Z,982.38
2017-07-24T12:13:15.201Z,982.44
2017-07-24T12:14:15.555Z,982.42
2017-07-24T12:15:15.088Z,982.42
2017-07-24T12:16:14.873Z,982.45
2017-07-24T12:17:15.312Z,982.54
2017-07-24T12:18:14.981Z,982.55
2017-07-24T12:19:14.897Z,982.56
2017-07-24T12:20:14.981Z,982.70
2017-07-24T12:21:14.952Z,982.67
2017-07-24T12:22:14.922Z,982.66
2017-07-24T12:23:15.361Z,982.67
2017-07-24T12:24:15.310Z,982.70
2017-07-24T12:25:15.356Z,982.73
2017-07-24T12:26:15.304Z,982.75
2017-07-24T12:27:15.593Z,982.71
2017-07-24T12:28:15.436Z,982.71